Time;durP1;ratioP1;P1;durP2;ratioP2;P2;SDS_P1;SDS_P2;PMS_P1;PMS_P2;Temp;Humidity;BMP_temperature;BMP_pressure;BME280_temperature;BME280_humidity;BME280_pressure;Samples;Min_cycle;Max_cycle;Signal;HPM_P1;HPM_P2
2022/03/26 00:00:43;;;;;;;35.47;21.85;;;11.00;45.70;;;10.54;42.50;101644.88;4994749;28;20046;-77
2022/03/26 00:03:15;;;;;;;36.47;21.88;;;11.00;45.70;;;10.59;42.36;101645.72;4981100;28;20065;-78
2022/03/26 00:05:43;;;;;;;31.80;21.38;;;10.60;45.40;;;10.56;42.53;101649.22;4997386;28;20050;-77
2022/03/26 00:08:12;;;;;;;34.05;21.55;;;10.80;45.60;;;10.54;42.75;101645.72;4978116;28;20148;-79
2022/03/26 00:10:40;;;;;;;30.65;20.98;;;10.70;45.60;;;10.54;41.83;101648.34;4987925;28;20074;-79
2022/03/26 00:13:07;;;;;;;32.53;22.17;;;10.70;45.20;;;10.50;42.64;101654.53;4991985;28;20054;-77
2022/03/26 00:15:34;;;;;;;31.08;21.23;;;10.70;45.20;;;10.43;42.22;101651.03;4991278;28;20405;-79
2022/03/26 00:18:02;;;;;;;31.80;21.77;;;10.60;45.10;;;10.43;42.14;101651.03;4991732;28;20097;-78
2022/03/26 00:20:29;;;;;;;36.38;21.67;;;10.60;45.10;;;10.25;42.63;101651.91;4993504;28;20395;-79
2022/03/26 00:22:56;;;;;;;31.70;21.23;;;10.50;45.30;;;10.08;42.67;101644.91;4991880;28;20050;-79
2022/03/26 00:25:23;;;;;;;35.35;22.35;;;10.50;45.30;;;10.06;43.55;101651.94;5017740;28;20065;-78
2022/03/26 00:27:50;;;;;;;30.52;20.33;;;10.40;45.70;;;9.88;43.60;101651.97;4997598;28;20049;-79
2022/03/26 00:30:18;;;;;;;27.77;19.45;;;11.60;46.50;;;9.65;43.89;101660.72;4991614;28;20050;-79
2022/03/26 00:32:45;;;;;;;34.55;21.95;;;10.30;46.00;;;9.55;44.03;101656.34;5007857;28;20070;-79
2022/03/26 00:35:12;;;;;;;29.45;21.30;;;10.40;46.10;;;9.19;44.63;101667.63;4994973;28;20053;-78
2022/03/26 00:37:40;;;;;;;30.05;20.60;;;11.60;47.00;;;9.12;45.48;101658.00;5001575;28;20046;-77
2022/03/26 00:40:09;;;;;;;33.63;22.23;;;9.90;46.60;;;9.12;45.73;101663.25;4986042;28;20038;-78
2022/03/26 00:42:36;;;;;;;34.42;20.63;;;9.70;47.10;;;8.94;45.82;101656.19;5007906;28;20046;-78
2022/03/26 00:45:04;;;;;;;28.38;21.00;;;9.60;47.30;;;8.69;46.40;101660.47;4993062;28;20060;-79
2022/03/26 00:47:32;;;;;;;29.42;20.23;;;9.50;47.40;;;8.57;47.05;101666.53;4991283;28;20133;-80
2022/03/26 00:49:59;;;;;;;33.67;21.73;;;9.30;47.70;;;8.51;48.18;101667.38;4991999;28;20050;-77
2022/03/26 00:52:26;;;;;;;32.72;20.70;;;9.20;48.40;;;8.57;49.11;101672.66;4991808;28;20054;-78
2022/03/26 00:54:53;;;;;;;34.60;21.30;;;9.10;49.20;;;8.54;49.81;101672.63;4997053;28;20050;-78
2022/03/26 00:57:21;;;;;;;28.85;19.58;;;9.00;49.70;;;8.57;49.90;101666.53;5001126;28;20140;-78
2022/03/26 00:59:48;;;;;;;30.58;20.40;;;8.90;49.80;;;8.51;49.42;101665.66;5001822;28;20053;-77
2022/03/26 01:02:16;;;;;;;34.00;21.38;;;8.90;49.80;;;8.53;50.06;101672.66;4990925;28;20046;-79
2022/03/26 01:04:43;;;;;;;30.42;20.67;;;8.90;49.70;;;8.36;50.86;101661.16;4990597;28;20093;-78
2022/03/26 01:07:10;;;;;;;34.70;20.45;;;8.80;50.20;;;8.27;51.67;101662.84;4991384;28;20112;-79
2022/03/26 01:09:37;;;;;;;33.20;21.10;;;8.80;50.60;;;8.28;53.32;101665.47;4991135;28;20046;-78
2022/03/26 01:12:05;;;;;;;30.70;22.10;;;8.80;51.20;;;8.14;53.80;101665.38;4991980;28;20102;-78
2022/03/26 01:14:33;;;;;;;30.55;21.27;;;8.70;51.40;;;7.91;54.47;101665.19;5000920;28;20057;-77
2022/03/26 01:17:00;;;;;;;34.47;21.55;;;8.60;51.50;;;7.94;56.66;101667.84;5000776;28;20401;-78
2022/03/26 01:19:27;;;;;;;32.33;22.80;;;8.40;52.00;;;7.98;59.04;101664.41;5007150;28;20038;-79
2022/03/26 01:21:55;;;;;;;31.90;22.20;;;8.40;53.30;;;8.05;59.29;101663.56;4991651;28;20050;-78
2022/03/26 01:24:22;;;;;;;34.40;24.13;;;8.40;53.70;;;8.25;61.83;101670.69;4999681;28;20046;-78
2022/03/26 01:26:49;;;;;;;43.50;26.13;;;9.90;55.90;;;8.34;66.54;101664.63;4976089;28;20069;-78
2022/03/26 01:29:17;;;;;;;42.17;28.48;;;8.50;57.70;;;8.33;65.86;101666.38;4975336;28;20161;-78
2022/03/26 01:31:44;;;;;;;40.47;26.70;;;8.60;57.50;;;8.22;64.30;101661.06;4991983;28;20058;-78
2022/03/26 01:34:11;;;;;;;38.03;26.00;;;8.60;57.50;;;8.08;67.42;101660.09;4989580;28;20137;-79
2022/03/26 01:36:38;;;;;;;41.92;26.98;;;8.60;58.90;;;8.00;67.67;101665.28;5009028;28;20065;-77
2022/03/26 01:39:05;;;;;;;43.90;27.88;;;9.60;59.40;;;7.96;68.99;101658.28;5002679;28;20050;-78
2022/03/26 01:41:33;;;;;;;40.58;27.65;;;8.40;59.70;;;8.01;71.05;101668.75;4995098;28;20054;-77
2022/03/26 01:44:01;;;;;;;38.42;27.08;;;8.40;60.70;;;7.98;72.69;101666.13;4990853;28;20057;-77
2022/03/26 01:46:51;;;;;;;38.33;27.08;;;8.30;62.20;;;8.05;71.30;101660.94;4989900;28;20049;-77
2022/03/26 01:49:19;;;;;;;36.17;26.45;;;8.30;63.50;;;8.02;72.73;101660.94;4994777;28;20042;-78
2022/03/26 01:51:47;;;;;;;38.45;25.98;;;8.40;64.50;;;8.12;71.50;101663.59;4993375;28;20050;-79
2022/03/26 01:54:16;;;;;;;38.28;26.20;;;8.40;65.70;;;8.16;70.42;101666.25;4990242;28;20057;-78
2022/03/26 01:56:44;;;;;;;36.77;25.97;;;8.40;65.90;;;7.99;71.66;101667.88;4990699;28;20419;-77
2022/03/26 01:59:11;;;;;;;35.15;24.88;;;8.30;66.10;;;7.89;72.44;101662.59;4989420;28;20057;-78
2022/03/26 02:01:39;;;;;;;39.78;26.65;;;8.30;66.60;;;7.77;71.42;101659.84;4973131;28;20070;-79
2022/03/26 02:04:08;;;;;;;36.53;24.73;;;8.30;66.30;;;7.60;69.59;101657.97;4978134;28;20051;-76
2022/03/26 02:06:39;;;;;;;39.65;26.75;;;8.20;66.50;;;7.54;72.12;101660.50;4970451;28;20046;-77
2022/03/26 02:09:12;;;;;;;35.75;24.60;;;8.00;67.80;;;7.42;75.10;101668.28;4977020;28;20504;-76
2022/03/26 02:11:43;;;;;;;33.22;24.88;;;8.00;69.40;;;7.56;74.13;101657.94;4973704;28;20058;-78
2022/03/26 02:14:13;;;;;;;37.15;26.77;;;8.50;70.00;;;7.47;77.06;101669.19;4988899;28;20499;-77
2022/03/26 02:16:43;;;;;;;36.38;26.63;;;7.90;71.90;;;7.46;74.75;101664.81;4973098;28;20050;-78
2022/03/26 02:19:15;;;;;;;35.13;25.40;;;7.90;71.30;;;7.31;74.82;101662.91;4990534;28;20053;-77
2022/03/26 02:21:43;;;;;;;41.05;28.17;;;7.70;71.80;;;7.00;79.88;101665.19;4989259;28;20702;-77
2022/03/26 02:24:10;;;;;;;36.25;25.60;;;8.30;74.20;;;6.95;79.97;101670.41;4989084;28;20054;-78
2022/03/26 02:26:37;;;;;;;39.22;25.95;;;7.60;74.40;;;6.85;80.17;101676.38;4990277;28;20527;-78
2022/03/26 02:29:10;;;;;;;41.65;26.67;;;8.70;75.80;;;6.60;82.07;101663.84;4973275;28;20065;-77
2022/03/26 02:31:40;;;;;;;37.00;26.02;;;8.90;77.20;;;6.46;84.82;101666.25;4990092;28;20054;-77
2022/03/26 02:34:07;;;;;;;40.75;27.25;;;7.30;77.40;;;6.61;83.32;101665.59;4987592;28;20053;-76
2022/03/26 02:36:35;;;;;;;39.58;26.25;;;7.80;78.20;;;6.50;85.00;101661.97;4988343;28;20042;-77
2022/03/26 02:39:04;;;;;;;38.25;26.10;;;7.40;79.60;;;6.55;86.05;101668.13;4988601;28;20046;-76
2022/03/26 02:41:35;;;;;;;37.72;25.88;;;7.60;80.70;;;6.50;84.62;101672.41;4988687;28;20046;-77
2022/03/26 02:44:03;;;;;;;38.13;26.45;;;7.00;80.50;;;6.32;88.16;101660.84;4987341;28;20522;-77
2022/03/26 02:46:30;;;;;;;40.50;27.00;;;7.90;83.00;;;6.20;88.92;101666.78;4987899;28;20046;-76
2022/03/26 02:48:57;;;;;;;39.38;27.45;;;6.90;83.20;;;6.26;91.28;101663.38;4977659;28;20050;-77
2022/03/26 02:51:24;;;;;;;42.33;26.83;;;6.80;83.90;;;6.24;94.44;101671.19;4987081;28;20042;-78
2022/03/26 02:53:51;;;;;;;38.85;26.80;;;6.80;86.10;;;6.24;93.40;101665.06;4986995;28;20046;-78
2022/03/26 02:56:19;;;;;;;36.15;24.70;;;6.70;86.70;;;6.34;90.71;101668.72;4988153;28;20050;-78
2022/03/26 02:58:48;;;;;;;41.38;26.10;;;7.00;87.00;;;6.35;90.82;101671.34;4988403;28;20042;-78
2022/03/26 03:01:16;;;;;;;38.10;26.75;;;6.70;87.70;;;6.33;90.53;101669.59;4992817;28;20412;-77
2022/03/26 03:03:43;;;;;;;36.67;24.33;;;6.70;87.50;;;6.39;86.59;101667.91;4991638;28;20042;-78
2022/03/26 03:06:13;;;;;;;37.15;25.17;;;6.70;86.60;;;6.36;86.74;101662.63;4991587;28;20053;-76
2022/03/26 03:08:40;;;;;;;37.92;25.33;;;6.70;86.50;;;6.30;84.65;101669.50;4988158;28;20034;-77
2022/03/26 03:11:08;;;;;;;39.28;24.48;;;6.70;86.30;;;6.04;84.36;101657.81;4988655;28;20038;-77
2022/03/26 03:13:36;;;;;;;36.45;23.92;;;6.70;86.00;;;6.02;88.65;101662.13;5005874;28;20051;-76
2022/03/26 03:16:03;;;;;;;35.47;23.80;;;7.50;87.60;;;6.03;85.24;101661.28;4971149;28;20061;-77
2022/03/26 03:18:30;;;;;;;36.10;25.25;;;6.50;86.40;;;5.90;87.15;101660.19;4987332;28;20042;-76
2022/03/26 03:21:00;;;;;;;;;;;6.50;87.00;;;5.84;89.11;101667.91;4986815;28;20065;-75
2022/03/26 03:23:27;;;;;;;39.83;23.88;;;6.50;87.70;;;5.74;89.63;101658.19;4986940;28;20424;-76
2022/03/26 03:25:54;;;;;;;33.75;22.58;;;6.40;87.50;;;5.57;90.38;101664.00;4988953;28;20070;-77
2022/03/26 03:28:26;;;;;;;36.67;24.80;;;6.20;88.90;;;5.48;93.02;101659.50;4972629;28;20054;-77
2022/03/26 03:30:53;;;;;;;37.95;21.80;;;7.50;90.40;;;5.55;89.94;101665.69;4987629;28;20065;-76
2022/03/26 03:33:20;;;;;;;32.80;23.00;;;6.10;88.70;;;5.46;90.98;101661.16;4989264;28;20042;-77
2022/03/26 03:35:47;;;;;;;35.63;22.10;;;6.10;89.50;;;5.33;92.82;101665.28;4987495;28;20047;-77
2022/03/26 03:38:14;;;;;;;35.75;23.48;;;6.00;90.20;;;5.27;89.98;101659.06;4988677;28;20035;-76
2022/03/26 03:40:41;;;;;;;33.45;21.17;;;5.90;89.20;;;5.12;90.75;101657.94;4986890;28;20038;-76
2022/03/26 03:43:08;;;;;;;33.63;21.83;;;5.90;89.80;;;5.17;91.34;101656.31;4987478;28;20054;-77
2022/03/26 03:45:35;;;;;;;33.42;22.60;;;5.80;89.80;;;5.14;92.41;101653.63;4987738;28;20419;-77
2022/03/26 03:48:02;;;;;;;32.35;21.00;;;6.40;90.30;;;5.05;93.85;101649.09;4989131;28;20054;-77
2022/03/26 03:50:29;;;;;;;34.13;22.23;;;5.80;90.40;;;5.14;97.43;101655.38;4971929;28;20133;-77
2022/03/26 03:52:56;;;;;;;32.75;22.02;;;5.70;91.10;;;5.01;99.29;101654.25;4987671;28;20061;-76
2022/03/26 03:55:24;;;;;;;38.22;23.83;;;5.90;91.60;;;5.00;98.63;101657.72;4986740;28;20038;-77
2022/03/26 03:57:51;;;;;;;31.70;20.48;;;5.60;91.40;;;5.14;95.49;101653.63;4982143;28;20051;-77
2022/03/26 04:00:18;;;;;;;31.33;20.67;;;7.10;91.60;;;5.05;97.92;101659.53;4984007;28;20054;-78
2022/03/26 04:02:45;;;;;;;31.73;20.25;;;7.40;92.10;;;5.05;98.83;101651.72;4990637;28;20034;-75
2022/03/26 04:05:13;;;;;;;31.13;20.73;;;5.60;91.80;;;5.06;96.83;101650.88;4987667;28;20049;-76
2022/03/26 04:07:44;;;;;;;30.42;20.90;;;5.60;91.80;;;4.95;100.00;101655.00;4987498;28;20062;-76
2022/03/26 04:10:11;;;;;;;31.00;21.23;;;5.60;92.20;;;4.93;98.44;101654.97;4987594;28;20582;-76
2022/03/26 04:12:41;;;;;;;30.80;22.00;;;5.50;91.70;;;4.97;98.71;101653.31;4988134;28;20073;-76
2022/03/26 04:15:13;;;;;;;40.97;22.42;;;5.60;91.90;;;4.94;100.00;101659.34;4988285;28;20061;-78
2022/03/26 04:17:41;;;;;;;29.23;20.67;;;5.50;92.40;;;4.88;100.00;101660.94;4987334;28;20061;-77
2022/03/26 04:20:10;;;;;;;34.22;22.00;;;5.50;92.20;;;4.81;98.11;101663.44;4986586;28;20049;-76
2022/03/26 04:22:38;;;;;;;31.70;21.08;;;5.40;91.70;;;4.62;100.00;101662.16;4985868;28;20073;-76
2022/03/26 04:25:07;;;;;;;30.13;20.42;;;5.40;92.20;;;4.54;100.00;101662.00;4986458;28;20646;-77
2022/03/26 04:27:34;;;;;;;35.95;21.02;;;5.40;92.20;;;4.61;100.00;101654.31;4971745;28;20050;-78
2022/03/26 04:30:02;;;;;;;34.22;21.10;;;5.30;92.30;;;4.43;100.00;101662.63;4971324;28;20050;-76
2022/03/26 04:32:32;;;;;;;31.95;21.27;;;5.20;92.30;;;4.44;100.00;101665.22;4990149;28;20065;-76
2022/03/26 04:34:59;;;;;;;33.97;20.73;;;6.80;93.30;;;4.40;100.00;101664.31;4990587;28;20042;-77
2022/03/26 04:37:28;;;;;;;36.15;21.45;;;7.60;93.80;;;4.35;100.00;101665.03;4974967;28;20058;-77
2022/03/26 04:39:55;;;;;;;29.95;19.75;;;5.10;93.00;;;4.35;100.00;101668.50;4990422;28;20416;-76
2022/03/26 04:42:22;;;;;;;38.25;21.30;;;5.00;93.10;;;4.25;100.00;101666.56;4990036;28;20427;-75
2022/03/26 04:44:49;;;;;;;34.72;20.95;;;5.30;93.80;;;4.22;100.00;101674.31;4990944;28;20046;-76
2022/03/26 04:47:16;;;;;;;33.78;21.30;;;4.80;93.60;;;4.32;100.00;101673.66;4990000;28;20038;-76
2022/03/26 04:49:43;;;;;;;30.58;21.15;;;5.10;93.70;;;4.43;100.00;101679.09;4990466;28;20053;-78
2022/03/26 04:52:10;;;;;;;31.77;20.27;;;6.70;94.20;;;4.49;100.00;101679.25;4990547;28;20407;-76
2022/03/26 04:54:38;;;;;;;39.65;20.88;;;5.60;93.70;;;4.52;100.00;101684.53;4989220;28;20054;-77
2022/03/26 04:57:05;;;;;;;35.03;20.70;;;6.90;93.80;;;4.47;100.00;101691.38;4992745;28;20054;-78
2022/03/26 04:59:32;;;;;;;34.13;20.42;;;5.00;93.40;;;4.38;100.00;101688.56;4991852;28;20140;-77
2022/03/26 05:01:59;;;;;;;29.88;19.92;;;5.00;93.60;;;4.21;100.00;101691.66;4974311;28;20046;-78
2022/03/26 05:04:26;;;;;;;33.60;21.15;;;6.90;93.90;;;4.23;100.00;101694.31;4990294;28;20057;-77
2022/03/26 05:06:53;;;;;;;32.55;19.35;;;4.90;93.70;;;4.17;100.00;101681.13;5006733;28;20415;-77
2022/03/26 05:09:20;;;;;;;32.20;20.40;;;4.80;93.30;;;4.09;100.00;101676.63;4974526;28;20050;-76
2022/03/26 05:11:47;;;;;;;32.95;19.67;;;4.90;93.40;;;4.11;100.00;101685.34;4973860;28;20050;-76
2022/03/26 05:14:16;;;;;;;30.48;20.17;;;4.80;93.40;;;4.01;100.00;101693.78;4992845;28;20055;-77
2022/03/26 05:16:44;;;;;;;26.33;18.70;;;4.70;93.40;;;4.03;100.00;101689.47;4989495;28;20418;-76
2022/03/26 05:19:11;;;;;;;31.95;19.95;;;4.60;93.10;;;4.04;100.00;101691.25;4990142;28;20044;-77
2022/03/26 05:21:38;;;;;;;32.08;20.67;;;6.00;93.80;;;3.92;100.00;101683.16;4975376;28;20056;-76
2022/03/26 05:24:06;;;;;;;33.78;20.83;;;4.60;93.50;;;4.04;100.00;101691.25;4991055;28;20046;-77
2022/03/26 05:26:33;;;;;;;35.10;20.27;;;4.60;93.60;;;3.99;100.00;101692.00;4992316;28;20053;-78
2022/03/26 05:29:00;;;;;;;33.83;19.48;;;4.60;94.00;;;4.02;100.00;101686.88;4978890;28;20053;-77
2022/03/26 05:31:28;;;;;;;32.00;20.17;;;4.60;94.00;;;3.83;100.00;101697.69;4990808;28;20081;-78
2022/03/26 05:33:56;;;;;;;33.75;19.88;;;4.60;94.00;;;3.92;100.00;101704.00;4973210;28;20611;-78
2022/03/26 05:36:23;;;;;;;29.60;20.27;;;4.50;93.90;;;3.89;100.00;101707.38;4989351;28;20058;-77
2022/03/26 05:38:50;;;;;;;32.80;19.27;;;4.60;94.20;;;3.90;100.00;101716.06;4990116;28;20050;-77
2022/03/26 05:41:17;;;;;;;28.38;19.10;;;4.50;94.40;;;3.82;100.00;101723.69;4988912;28;20117;-77
2022/03/26 05:44:02;;;;;;;31.73;19.65;;;4.50;94.10;;;3.80;100.00;101734.06;4982494;28;20042;-78
2022/03/26 05:46:32;;;;;;;33.50;18.77;;;4.50;94.10;;;3.77;100.00;101739.22;4993635;28;20580;-76
2022/03/26 05:48:59;;;;;;;33.47;20.92;;;6.20;94.40;;;3.69;100.00;101738.09;4993915;28;20062;-76
2022/03/26 05:51:26;;;;;;;31.95;19.10;;;6.20;94.50;;;3.74;100.00;101741.69;4976721;28;20065;-77
2022/03/26 05:53:53;;;;;;;30.83;20.05;;;4.40;94.10;;;3.86;100.00;101748.09;4974012;28;20046;-77
2022/03/26 05:56:20;;;;;;;31.83;18.30;;;4.50;93.90;;;3.80;100.00;101751.41;4988449;28;20073;-77
2022/03/26 05:58:50;;;;;;;31.38;18.02;;;4.50;94.00;;;3.91;100.00;101756.91;4976841;28;20054;-77
2022/03/26 06:01:17;;;;;;;26.65;17.23;;;4.50;94.10;;;3.80;100.00;101752.28;4991936;28;20042;-76
2022/03/26 06:03:44;;;;;;;32.95;19.13;;;4.60;93.70;;;3.71;100.00;101753.78;4989092;28;20085;-77
2022/03/26 06:06:11;;;;;;;32.35;18.67;;;4.50;93.60;;;3.79;100.00;101749.63;4988724;28;20045;-78
2022/03/26 06:08:38;;;;;;;27.27;16.98;;;4.50;94.40;;;3.77;100.00;101757.44;4972623;28;20072;-78
2022/03/26 06:11:05;;;;;;;28.83;17.98;;;4.60;94.20;;;3.79;100.00;101767.88;4973308;28;20045;-78
2022/03/26 06:13:32;;;;;;;35.95;18.50;;;4.50;93.70;;;3.82;100.00;101763.63;4989490;28;20675;-78
2022/03/26 06:15:59;;;;;;;30.85;18.23;;;4.50;94.40;;;3.95;100.00;101756.16;4988672;28;20057;-78
2022/03/26 06:18:29;;;;;;;28.92;18.60;;;6.20;94.80;;;4.05;100.00;101768.53;4956851;28;20050;-77
2022/03/26 06:20:56;;;;;;;31.20;17.70;;;6.30;95.10;;;4.06;100.00;101764.22;4988505;28;20049;-77
2022/03/26 06:23:27;;;;;;;28.92;17.92;;;6.10;94.70;;;4.17;100.00;101759.28;4987225;28;20042;-77
2022/03/26 06:25:54;;;;;;;;;;;4.60;94.10;;;4.32;100.00;101764.00;4949430;28;20054;-78
2022/03/26 06:28:21;;;;;;;29.95;18.40;;;4.70;94.00;;;4.39;100.00;101764.19;4972011;28;19929;-77
2022/03/26 06:30:48;;;;;;;29.77;17.75;;;6.10;94.20;;;4.58;100.00;101763.72;4988471;28;20056;-77
2022/03/26 06:33:16;;;;;;;29.83;19.02;;;5.30;93.90;;;4.65;100.00;101776.06;4989172;28;20038;-78
2022/03/26 06:35:44;;;;;;;33.97;21.42;;;6.50;94.50;;;4.66;100.00;101773.47;4988769;28;20061;-75
2022/03/26 06:38:31;;;;;;;29.80;18.98;;;5.90;94.20;;;4.73;100.00;101776.25;4990635;28;20034;-77
2022/03/26 06:40:58;;;;;;;31.13;18.35;;;5.10;93.70;;;4.73;100.00;101773.63;4994093;28;20054;-76
2022/03/26 06:43:25;;;;;;;33.30;18.30;;;5.80;93.90;;;4.79;100.00;101774.66;5005347;28;20048;-77
2022/03/26 06:45:52;;;;;;;30.90;17.85;;;5.30;93.70;;;5.03;99.86;101783.84;4989262;28;20042;-77
2022/03/26 06:48:19;;;;;;;37.17;19.38;;;5.80;93.50;;;5.18;100.00;101779.81;4989751;28;20054;-77
2022/03/26 06:50:46;;;;;;;36.63;19.33;;;5.40;93.30;;;5.30;100.00;101789.63;4992009;28;20538;-77
2022/03/26 06:53:14;;;;;;;35.50;17.83;;;5.60;93.50;;;5.36;100.00;101788.03;4991724;28;20072;-78
2022/03/26 06:55:41;;;;;;;30.67;18.83;;;7.30;93.80;;;5.40;97.90;101788.97;4992181;28;20530;-78
2022/03/26 06:58:11;;;;;;;31.02;19.58;;;5.70;93.10;;;5.49;99.57;101781.34;4973085;28;20054;-78
2022/03/26 07:00:42;;;;;;;34.78;20.95;;;6.80;93.50;;;5.64;98.37;101787.72;4988643;28;20077;-77
2022/03/26 07:03:09;;;;;;;32.63;19.98;;;5.90;93.10;;;5.79;98.58;101789.72;4988839;28;20042;-76
2022/03/26 07:05:37;;;;;;;34.67;20.88;;;6.00;93.20;;;5.86;97.77;101789.00;4987783;28;20050;-77
2022/03/26 07:08:09;;;;;;;35.75;19.92;;;8.20;93.60;;;6.06;96.21;101788.50;4988200;28;20042;-76
2022/03/26 07:10:44;;;;;;;35.72;19.17;;;6.20;93.10;;;6.16;95.16;101789.53;4988534;28;20503;-77
2022/03/26 07:13:15;;;;;;;35.80;19.98;;;7.60;92.90;;;6.28;91.31;101788.84;4988549;28;20153;-77
2022/03/26 07:15:43;;;;;;;33.80;20.20;;;6.50;92.20;;;6.38;92.79;101790.78;4987906;28;20053;-77
2022/03/26 07:18:11;;;;;;;33.03;19.88;;;6.90;92.40;;;6.50;92.35;101790.97;4989801;28;20137;-76
2022/03/26 07:20:39;;;;;;;35.15;20.45;;;6.60;92.10;;;6.70;93.74;101787.78;4988574;28;20052;-77
2022/03/26 07:23:06;;;;;;;31.42;19.90;;;6.80;92.90;;;6.79;90.61;101787.94;4988206;28;20579;-78
2022/03/26 07:25:34;;;;;;;34.40;20.98;;;8.30;92.60;;;6.92;90.55;101791.59;4988767;28;20537;-75
2022/03/26 07:28:02;;;;;;;32.95;19.52;;;7.00;92.30;;;7.03;90.31;101791.72;4991016;28;20038;-77
2022/03/26 07:30:29;;;;;;;34.58;21.27;;;7.70;92.50;;;7.13;86.74;101802.34;4991223;28;20502;-78
2022/03/26 07:32:56;;;;;;;33.03;19.52;;;7.60;92.00;;;7.19;85.70;101797.16;4990269;28;20042;-77
2022/03/26 07:35:23;;;;;;;30.63;18.30;;;7.40;91.60;;;7.25;84.97;101797.25;4973734;28;20076;-77
2022/03/26 07:37:50;;;;;;;40.80;20.02;;;7.40;91.50;;;7.37;83.77;101793.91;4994425;28;20085;-77
2022/03/26 07:40:19;;;;;;;30.63;19.58;;;7.90;91.50;;;7.52;87.01;101798.44;4992651;28;20046;-75
2022/03/26 07:42:46;;;;;;;33.50;19.10;;;7.60;91.80;;;7.62;84.70;101795.06;4957003;28;20770;-76
2022/03/26 07:45:14;;;;;;;36.65;18.92;;;9.30;92.10;;;7.79;82.98;101800.47;4988350;28;20050;-76
2022/03/26 07:47:41;;;;;;;30.67;18.08;;;7.90;91.50;;;7.91;79.36;101796.25;4959778;28;20500;-77
2022/03/26 07:50:09;;;;;;;32.15;18.17;;;8.00;91.00;;;8.06;77.78;101800.78;4973690;28;20488;-73
2022/03/26 07:52:38;;;;;;;27.08;17.88;;;8.10;90.80;;;8.18;75.72;101798.22;4992744;28;20116;-79
2022/03/26 07:55:06;;;;;;;30.85;18.55;;;8.30;90.60;;;8.32;76.75;101797.47;4994779;28;20076;-77
2022/03/26 07:57:33;;;;;;;32.42;19.30;;;8.40;90.70;;;8.51;72.17;101794.19;4981981;28;20042;-75
2022/03/26 08:00:00;;;;;;;26.88;16.83;;;8.50;90.10;;;8.58;70.87;101797.72;4970509;28;20054;-74
2022/03/26 08:02:27;;;;;;;32.05;18.73;;;8.60;89.60;;;8.69;70.01;101791.66;4982472;28;20073;-75
2022/03/26 08:04:54;;;;;;;31.48;18.45;;;8.70;89.20;;;8.82;67.89;101788.25;4989110;28;20062;-76
2022/03/26 08:07:21;;;;;;;30.02;18.98;;;9.70;88.90;;;8.97;66.63;101795.31;4989965;28;20428;-75
2022/03/26 08:09:48;;;;;;;30.13;18.45;;;9.00;88.00;;;9.13;66.58;101798.03;4992213;28;20062;-79
2022/03/26 08:12:15;;;;;;;34.05;18.90;;;10.70;88.70;;;9.28;63.63;101792.00;4994803;28;20042;-79
2022/03/26 08:14:42;;;;;;;28.00;17.33;;;9.20;86.50;;;9.41;61.96;101800.78;4995788;28;20046;-79
2022/03/26 08:17:09;;;;;;;32.38;19.13;;;9.40;86.10;;;9.52;60.52;101796.47;4994954;28;20130;-78
2022/03/26 08:19:37;;;;;;;31.10;18.17;;;9.50;84.90;;;9.67;60.46;101792.13;4993951;28;20480;-77
2022/03/26 08:22:04;;;;;;;35.42;20.17;;;9.60;84.70;;;9.77;59.83;101796.53;4996009;28;20054;-79
2022/03/26 08:24:34;;;;;;;28.77;18.58;;;9.70;84.40;;;9.87;58.58;101795.66;4980534;28;20069;-79
2022/03/26 08:27:06;;;;;;;34.70;20.58;;;9.80;83.40;;;9.93;57.01;101795.69;4998746;28;20046;-79
2022/03/26 08:29:35;;;;;;;30.25;19.17;;;11.50;83.70;;;10.12;56.18;101790.44;4999032;28;20098;-79
2022/03/26 08:32:25;;;;;;;31.00;18.80;;;10.10;81.90;;;10.25;55.94;101798.34;5033961;28;20589;-79
2022/03/26 08:35:24;;;;;;;36.60;20.33;;;10.20;81.30;;;10.39;55.31;101791.34;4999222;28;20053;-78
2022/03/26 08:37:51;;;;;;;29.65;19.20;;;11.60;81.40;;;10.55;54.92;101801.88;4976453;28;20061;-77
2022/03/26 08:40:18;;;;;;;31.27;19.45;;;11.60;81.20;;;10.65;54.39;101803.59;4992537;28;20121;-77
2022/03/26 08:42:45;;;;;;;31.20;19.40;;;10.50;79.70;;;10.70;53.24;101795.72;5008643;28;20058;-76
2022/03/26 08:45:12;;;;;;;31.15;19.63;;;10.70;78.90;;;10.79;52.82;101800.97;4992619;28;20085;-77
2022/03/26 08:47:40;;;;;;;31.92;19.17;;;11.00;78.40;;;10.95;52.60;101803.56;4993284;28;20724;-77
2022/03/26 08:50:08;;;;;;;34.90;20.27;;;10.90;78.00;;;11.06;52.09;101801.75;5009301;28;20046;-79
2022/03/26 08:52:37;;;;;;;34.15;20.63;;;11.00;77.40;;;11.16;52.34;101800.84;4992048;28;20049;-75
2022/03/26 08:55:05;;;;;;;31.42;20.58;;;11.10;77.40;;;11.30;52.12;101805.22;5008569;28;20661;-75
2022/03/26 08:57:32;;;;;;;32.85;20.45;;;11.20;77.20;;;11.38;51.46;101802.53;4992739;28;20534;-77
2022/03/26 08:59:59;;;;;;;33.92;20.90;;;11.30;76.60;;;11.48;50.68;101797.22;5008121;28;20060;-75
2022/03/26 09:02:27;;;;;;;34.33;20.95;;;12.30;76.20;;;11.68;50.60;101803.28;4987889;28;20050;-76
2022/03/26 09:04:54;;;;;;;31.25;20.10;;;11.50;75.40;;;11.72;49.65;101807.63;4991082;28;20121;-75
2022/03/26 09:07:21;;;;;;;37.33;20.95;;;11.60;74.40;;;11.85;49.47;101809.31;4991991;28;20092;-75
2022/03/26 09:09:48;;;;;;;32.47;20.70;;;12.20;74.10;;;11.92;49.53;101799.59;4974265;28;20061;-74
2022/03/26 09:12:15;;;;;;;31.02;20.73;;;12.70;74.20;;;11.98;48.87;101801.34;4991172;28;20452;-75
2022/03/26 09:14:43;;;;;;;31.85;20.67;;;12.00;73.00;;;12.08;48.36;101807.44;4990559;28;20085;-74
2022/03/26 09:17:13;;;;;;;31.45;20.95;;;12.00;72.50;;;12.20;47.16;101800.31;4990145;28;20057;-76
2022/03/26 09:19:40;;;;;;;32.53;20.65;;;12.80;71.50;;;12.36;46.68;101792.25;5008189;28;20050;-77
2022/03/26 09:22:07;;;;;;;31.90;20.55;;;12.20;70.00;;;12.50;46.37;101799.19;4993186;28;20451;-77
2022/03/26 09:24:37;;;;;;;33.47;21.25;;;12.40;69.20;;;12.56;46.08;101793.84;4990643;28;20057;-77
2022/03/26 09:27:04;;;;;;;34.95;22.45;;;12.40;69.00;;;12.65;45.90;101798.19;4989810;28;20105;-76
2022/03/26 09:29:31;;;;;;;33.15;21.85;;;12.70;68.30;;;12.72;46.09;101786.66;4991006;28;20113;-77
2022/03/26 09:31:58;;;;;;;37.53;22.63;;;12.70;68.40;;;12.80;45.76;101792.75;4990762;28;20050;-77
2022/03/26 09:34:25;;;;;;;34.10;22.35;;;12.70;68.70;;;12.88;45.61;101801.44;4990335;28;20455;-75
2022/03/26 09:36:55;;;;;;;38.75;22.30;;;13.90;68.30;;;12.96;45.46;101804.00;4991089;28;20809;-77
2022/03/26 09:39:25;;;;;;;37.78;24.42;;;12.80;67.40;;;13.03;45.14;101797.78;4991774;28;20101;-76
2022/03/26 09:41:54;;;;;;;33.47;22.52;;;12.90;67.20;;;13.19;45.70;101795.81;4990788;28;20046;-76
2022/03/26 09:44:22;;;;;;;37.15;23.77;;;13.00;68.00;;;13.30;44.35;101797.47;4991666;28;20169;-78
2022/03/26 09:46:50;;;;;;;37.88;24.63;;;13.20;66.20;;;13.43;43.55;101792.88;4988618;28;20065;-77
2022/03/26 09:49:17;;;;;;;36.35;23.33;;;13.50;65.20;;;13.59;43.59;101804.16;4989682;28;20425;-77
2022/03/26 09:51:44;;;;;;;43.60;25.50;;;13.40;64.80;;;13.62;42.72;101785.63;4999047;28;20373;-77
2022/03/26 09:54:15;;;;;;;35.50;24.35;;;13.50;63.30;;;13.76;42.73;101793.34;4969616;28;20046;-77
2022/03/26 09:56:43;;;;;;;45.28;25.25;;;14.70;63.70;;;13.90;42.50;101791.38;4986697;28;20157;-76
2022/03/26 09:59:10;;;;;;;36.10;23.52;;;13.70;62.30;;;13.90;41.62;101786.06;4971729;28;20081;-76
2022/03/26 10:01:37;;;;;;;39.45;24.70;;;13.80;61.70;;;14.08;41.10;101794.63;4972266;28;20088;-77
2022/03/26 10:04:13;;;;;;;40.58;26.10;;;13.90;60.50;;;14.19;40.92;101783.84;4971797;28;20051;-76
2022/03/26 10:07:08;;;;;;;37.38;23.63;;;14.10;59.90;;;14.30;41.25;101786.34;4971329;28;20043;-77
2022/03/26 10:09:45;;;;;;;43.72;25.02;;;14.20;60.10;;;14.40;40.65;101784.41;4970066;28;20058;-77
2022/03/26 10:12:18;;;;;;;40.38;24.63;;;14.20;59.40;;;14.36;40.37;101778.28;4984469;28;20047;-76